Time;durP1;ratioP1;P1;durP2;ratioP2;P2;SDS_P1;SDS_P2;PMS_P1;PMS_P2;Temp;Humidity;BMP_temperature;BMP_pressure;BME280_temperature;BME280_humidity;BME280_pressure;Samples;Min_cycle;Max_cycle;Signal;HPM_P1;HPM_P2
2023/09/25 00:00:30;;;;;;;2.00;1.90;;;;;;;3.42;100.00;96771.44;7431141;19;20391;-91
2023/09/25 00:03:11;;;;;;;2.70;2.50;;;;;;;3.68;100.00;96813.94;7433469;19;20900;-90
2023/09/25 00:05:39;;;;;;;3.40;2.40;;;;;;;4.47;100.00;96952.69;7431463;19;20380;-91
2023/09/25 00:08:06;;;;;;;1.90;1.70;;;;;;;3.44;100.00;96789.47;7431484;19;20426;-90
2023/09/25 00:10:35;;;;;;;3.63;2.17;;;;;;;3.90;100.00;96839.72;7432011;19;20386;-91
2023/09/25 00:13:03;;;;;;;2.40;2.30;;;;;;;3.88;100.00;96835.81;7434792;19;20384;-91
2023/09/25 00:15:30;;;;;;;2.30;2.20;;;;;;;4.10;100.00;96859.75;7435492;19;20711;-91
2023/09/25 00:17:58;;;;;;;3.70;2.27;;;;;;;3.42;100.00;96728.84;7408963;19;20419;-90
2023/09/25 00:20:25;;;;;;;2.67;2.47;;;;;;;3.92;100.00;96805.44;7408391;19;20385;-91
2023/09/25 00:22:53;;;;;;;2.87;2.67;;;;;;;3.78;100.00;96826.19;7402935;19;20747;-91
2023/09/25 00:25:22;;;;;;;2.93;2.63;;;;;;;3.31;100.00;96735.97;7402624;19;20385;-90
2023/09/25 00:27:49;;;;;;;3.37;3.10;;;;;;;3.82;100.00;96807.06;7399541;19;20456;-90
2023/09/25 00:30:17;;;;;;;5.20;4.70;;;;;;;3.61;100.00;96805.63;7403334;19;20405;-90
2023/09/25 00:32:44;;;;;;;5.30;4.60;;;;;;;3.79;100.00;96832.97;7401871;19;20384;-90
2023/09/25 00:35:11;;;;;;;5.50;4.87;;;;;;;3.57;100.00;96781.06;7403388;19;20388;-90
2023/09/25 00:37:39;;;;;;;5.47;4.97;;;;;;;4.06;100.00;96877.81;7399834;19;20435;-90
2023/09/25 00:40:13;;;;;;;7.53;6.83;;;;;;;3.93;100.00;96862.72;7402557;19;20918;-90
2023/09/25 00:42:53;;;;;;;7.50;6.80;;;;;;;3.32;100.00;96771.50;7401271;19;20388;-90
2023/09/25 00:45:21;;;;;;;5.83;5.37;;;;;;;4.22;100.00;96898.66;7403043;19;20380;-90
2023/09/25 00:47:50;;;;;;;9.07;5.50;;;;;;;4.19;100.00;96883.50;7401921;19;20393;-91
2023/09/25 00:50:18;;;;;;;3.87;3.43;;;;;;;3.99;100.00;96855.59;7403245;19;20381;-91
2023/09/25 00:52:46;;;;;;;4.10;3.80;;;;;;;4.52;100.00;96935.13;7402282;19;20909;-91
2023/09/25 00:55:14;;;;;;;4.60;3.80;;;;;;;4.27;100.00;96894.16;7401278;19;20404;-91
2023/09/25 00:57:43;;;;;;;3.80;3.10;;;;;;;3.96;100.00;96859.56;7400096;19;20432;-91
2023/09/25 01:00:11;;;;;;;3.07;2.87;;;;;;;3.62;100.00;96801.97;7399666;19;20464;-91
2023/09/25 01:02:40;;;;;;;3.00;2.80;;;;;;;3.15;100.00;96777.06;7401874;19;20815;-91
2023/09/25 01:05:08;;;;;;;3.03;2.83;;;;;;;3.73;100.00;96870.66;7399632;19;20388;-91
2023/09/25 01:07:36;;;;;;;3.43;2.17;;;;;;;3.52;100.00;96818.47;7399969;19;20416;-90
2023/09/25 01:10:15;;;;;;;2.30;2.10;;;;;;;3.30;100.00;96752.69;7400093;19;20407;-91
2023/09/25 01:12:43;;;;;;;1.93;1.83;;;;;;;3.98;100.00;96854.84;7402704;19;20384;-91
2023/09/25 01:15:12;;;;;;;2.30;2.20;;;;;;;3.68;100.00;96834.06;7400760;19;20435;-91
2023/09/25 01:17:40;;;;;;;2.40;2.30;;;;;;;3.00;100.00;96735.31;7400358;19;20793;-91
2023/09/25 01:20:13;;;;;;;3.93;1.87;;;;;;;3.44;100.00;96816.41;7401487;19;20937;-91
2023/09/25 01:22:42;;;;;;;2.13;1.97;;;;;;;3.79;100.00;96882.66;7402248;19;20921;-90
2023/09/25 01:25:13;;;;;;;1.77;1.67;;;;;;;3.20;100.00;96784.88;7397491;19;20913;-91
2023/09/25 01:27:43;;;;;;;2.00;1.90;;;;;;;2.86;100.00;96726.50;7397759;19;20373;-90
2023/09/25 01:30:13;;;;;;;2.43;2.00;;;;;;;3.95;100.00;96892.00;7399623;19;20448;-90
2023/09/25 01:32:44;;;;;;;2.00;1.90;;;;;;;3.24;100.00;96824.31;7399277;19;20400;-91
2023/09/25 01:35:16;;;;;;;2.17;2.00;;;;;;;3.58;100.00;96865.47;7400815;19;20500;-91
2023/09/25 01:37:45;;;;;;;3.47;3.17;;;;;;;3.18;100.00;96827.97;7397382;19;20408;-91
2023/09/25 01:40:13;;;;;;;1.97;1.87;;;;;;;1.37;100.00;96580.97;7401004;19;20399;-91
2023/09/25 01:42:40;;;;;;;2.23;2.10;;;;;;;3.13;100.00;96838.47;7399966;19;20465;-91
2023/09/25 01:45:08;;;;;;;2.63;2.43;;;;;;;2.46;100.00;96737.81;7400426;19;20464;-90
2023/09/25 01:47:36;;;;;;;3.73;3.33;;;;;;;1.98;100.00;96693.00;7397129;19;20819;-90
2023/09/25 01:50:04;;;;;;;2.63;2.43;;;;;;;2.21;100.00;96713.31;7401469;19;20940;-90
2023/09/25 01:52:31;;;;;;;2.37;2.13;;;;;;;3.33;100.00;96855.91;7399713;19;20384;-91
2023/09/25 01:54:58;;;;;;;2.90;2.03;;;;;;;2.80;100.00;96766.72;7401702;19;20395;-91
2023/09/25 01:57:26;;;;;;;3.10;2.80;;;;;;;2.37;100.00;96712.25;7399639;19;20521;-90
2023/09/25 01:59:53;;;;;;;7.10;3.30;;;;;;;3.28;100.00;96837.63;7396892;19;20360;-91
2023/09/25 02:02:20;;;;;;;2.70;2.50;;;;;;;2.33;100.00;96673.91;7396781;19;20448;-91
2023/09/25 02:04:47;;;;;;;2.73;2.53;;;;;;;2.44;100.00;96725.03;7417309;19;20420;-91
2023/09/25 02:07:17;;;;;;;2.53;2.33;;;;;;;3.39;100.00;96839.94;7427849;19;20420;-91
2023/09/25 02:09:45;;;;;;;2.33;2.23;;;;;;;3.08;100.00;96801.91;7429705;19;20409;-90
2023/09/25 02:12:12;;;;;;;1.97;1.87;;;;;;;3.58;100.00;96881.16;7429394;19;20400;-90
2023/09/25 02:14:40;;;;;;;3.53;2.63;;;;;;;2.20;100.00;96661.44;7430977;19;20393;-89
2023/09/25 02:17:07;;;;;;;2.13;1.70;;;;;;;3.15;100.00;96800.56;7431824;19;20435;-91
2023/09/25 02:19:34;;;;;;;2.60;2.40;;;;;;;3.02;100.00;96769.78;7433766;19;20397;-90
2023/09/25 02:22:01;;;;;;;3.50;2.40;;;;;;;2.25;100.00;96675.22;7408769;19;20841;-90
2023/09/25 02:24:28;;;;;;;2.77;2.57;;;;;;;2.91;100.00;96774.25;7399469;19;20381;-90
2023/09/25 02:26:56;;;;;;;2.67;2.47;;;;;;;2.49;100.00;96714.59;7400045;19;20429;-91
2023/09/25 02:29:23;;;;;;;2.13;2.00;;;;;;;2.63;100.00;96803.56;7397027;19;20729;-90
2023/09/25 02:31:50;;;;;;;2.13;1.93;;;;;;;1.77;100.00;96681.81;7396855;19;20389;-90
2023/09/25 02:34:18;;;;;;;2.53;2.23;;;;;;;2.51;100.00;96763.91;7399140;19;20781;-90
2023/09/25 02:36:45;;;;;;;2.80;2.20;;;;;;;2.66;100.00;96769.09;7399619;19;20756;-90
2023/09/25 02:39:16;;;;;;;4.40;2.13;;;;;;;2.12;100.00;96681.00;7398171;19;20404;-90
2023/09/25 02:41:43;;;;;;;4.50;2.13;;;;;;;1.97;100.00;96678.41;7397526;19;20427;-90
2023/09/25 02:44:10;;;;;;;2.27;2.07;;;;;;;3.26;100.00;96885.72;7397084;19;20373;-91
2023/09/25 02:46:37;;;;;;;2.17;2.07;;;;;;;2.53;100.00;96759.97;7398819;19;20437;-90
2023/09/25 02:49:04;;;;;;;2.80;2.60;;;;;;;2.04;100.00;96726.66;7398721;19;20381;-90
2023/09/25 02:51:31;;;;;;;3.30;2.17;;;;;;;1.80;100.00;96673.47;7400866;19;20397;-90
2023/09/25 02:53:58;;;;;;;3.00;2.10;;;;;;;2.61;100.00;96771.72;7398699;19;20934;-90
2023/09/25 02:56:25;;;;;;;2.30;2.10;;;;;;;2.05;100.00;96660.41;7399224;19;20385;-90
2023/09/25 02:58:52;;;;;;;2.20;2.03;;;;;;;2.55;100.00;96731.03;7398503;19;20400;-90
2023/09/25 03:01:20;;;;;;;2.20;2.10;;;;;;;2.85;100.00;96787.59;7399818;19;20389;-90
2023/09/25 03:03:47;;;;;;;2.40;2.20;;;;;;;2.79;100.00;96784.19;7397571;19;20389;-90
2023/09/25 03:06:14;;;;;;;6.37;4.97;;;;;;;2.05;100.00;96644.75;7396379;19;20914;-90
2023/09/25 03:08:41;;;;;;;11.87;6.97;;;;;;;3.13;100.00;96799.28;7395276;19;20397;-90
2023/09/25 03:11:09;;;;;;;5.63;5.10;;;;;;;3.35;100.00;96866.88;7395721;19;20384;-90
2023/09/25 03:13:36;;;;;;;5.83;4.00;;;;;;;2.27;100.00;96738.38;7396731;19;20897;-91
2023/09/25 03:16:12;;;;;;;4.00;3.07;;;;;;;2.74;100.00;96833.81;7399569;19;20407;-90
2023/09/25 03:18:41;;;;;;;2.90;2.70;;;;;;;2.64;100.00;96792.84;7398874;19;20380;-90
2023/09/25 03:21:13;;;;;;;3.67;2.80;;;;;;;2.72;100.00;96795.97;7419882;19;20393;-90
2023/09/25 03:23:41;;;;;;;3.17;2.87;;;;;;;3.25;100.00;96849.41;7421652;19;20416;-91
2023/09/25 03:26:15;;;;;;;3.77;3.47;;;;;;;2.32;100.00;96701.06;7400221;19;20414;-90
2023/09/25 03:28:43;;;;;;;2.80;2.60;;;;;;;2.71;100.00;96776.94;7395506;19;20384;-90
2023/09/25 03:31:11;;;;;;;3.07;2.87;;;;;;;3.24;100.00;96858.28;7408616;19;20471;-91
2023/09/25 03:33:39;;;;;;;2.60;2.40;;;;;;;2.67;100.00;96776.69;7398940;19;20373;-92
2023/09/25 03:36:07;;;;;;;2.27;2.17;;;;;;;1.73;100.00;96668.50;7397178;19;20396;-91
2023/09/25 03:38:36;;;;;;;2.87;2.67;;;;;;;2.15;100.00;96737.09;7399203;19;20905;-91
2023/09/25 03:41:03;;;;;;;2.40;1.97;;;;;;;2.04;100.00;96731.09;7394758;19;20912;-91
2023/09/25 03:43:31;;;;;;;2.77;2.47;;;;;;;2.16;100.00;96742.03;7398174;19;20377;-91
2023/09/25 03:45:58;;;;;;;7.67;2.67;;;;;;;1.89;100.00;96694.59;7396721;19;20389;-91
2023/09/25 03:48:25;;;;;;;2.40;2.20;;;;;;;2.11;100.00;96728.19;7396440;19;21177;-91
2023/09/25 03:50:52;;;;;;;2.70;2.50;;;;;;;2.25;100.00;96722.19;7396935;19;20392;-92
2023/09/25 03:53:19;;;;;;;2.87;2.67;;;;;;;1.29;100.00;96608.31;7403545;19;20389;-91
2023/09/25 03:55:46;;;;;;;3.13;2.70;;;;;;;1.30;100.00;96633.31;7403848;19;20399;-92
2023/09/25 03:58:13;;;;;;;7.77;2.37;;;;;;;2.08;100.00;96738.09;7403107;19;20420;-92
2023/09/25 04:00:41;;;;;;;1.80;1.70;;;;;;;1.78;100.00;96730.28;7404344;19;20401;-92
2023/09/25 04:03:08;;;;;;;3.17;2.87;;;;;;;1.25;100.00;96676.81;7401055;19;20384;-92
2023/09/25 04:05:35;;;;;;;2.93;2.67;;;;;;;1.07;100.00;96660.63;7403949;19;20400;-91
2023/09/25 04:08:03;;;;;;;2.77;2.57;;;;;;;1.05;100.00;96662.69;7402702;19;21021;-91
2023/09/25 04:10:30;;;;;;;2.90;2.70;;;;;;;1.62;100.00;96697.44;7401134;19;20391;-92
2023/09/25 04:12:58;;;;;;;2.90;2.70;;;;;;;1.70;100.00;96666.41;7403204;19;20376;-91
2023/09/25 04:15:25;;;;;;;2.40;2.20;;;;;;;2.56;100.00;96776.97;7404761;19;20455;-92
2023/09/25 04:17:53;;;;;;;3.00;2.80;;;;;;;1.64;100.00;96628.38;7403394;19;20432;-91
2023/09/25 04:20:24;;;;;;;2.60;2.40;;;;;;;1.42;100.00;96620.03;7404048;19;20415;-91
2023/09/25 04:22:57;;;;;;;2.67;2.47;;;;;;;1.32;100.00;96528.88;7402629;19;20736;-91
2023/09/25 04:25:24;;;;;;;4.33;3.53;;;;;;;1.23;100.00;96473.94;7405284;19;20380;-92
2023/09/25 04:27:55;;;;;;;2.37;2.17;;;;;;;3.06;100.00;96825.66;7400206;19;20417;-91
2023/09/25 04:30:23;;;;;;;3.13;2.40;;;;;;;2.35;100.00;96737.84;7404656;19;20479;-91
2023/09/25 04:32:55;;;;;;;4.23;2.63;;;;;;;1.54;100.00;96680.47;7403603;19;20742;-92
2023/09/25 04:35:24;;;;;;;2.33;2.13;;;;;;;1.51;100.00;96648.97;7406242;19;20397;-92
2023/09/25 04:37:51;;;;;;;2.27;2.17;;;;;;;0.94;100.00;96525.75;7402654;19;20550;-92
2023/09/25 04:40:30;;;;;;;2.20;2.00;;;;;;;2.01;100.00;96682.84;7405696;19;20403;-92
2023/09/25 04:43:00;;;;;;;2.20;2.10;;;;;;;2.63;100.00;96832.25;7400580;19;20458;-92
2023/09/25 04:45:29;;;;;;;2.77;2.57;;;;;;;0.78;100.00;96604.81;7402209;19;20372;-92
2023/09/25 04:47:57;;;;;;;2.17;2.07;;;;;;;0.11;100.00;96480.84;7399161;19;20500;-92
2023/09/25 04:50:25;;;;;;;2.60;2.40;;;;;;;2.03;100.00;96772.03;7401210;19;20902;-92
2023/09/25 04:52:52;;;;;;;2.73;2.13;;;;;;;0.52;100.00;96533.72;7400496;19;20372;-93
2023/09/25 04:55:49;;;;;;;4.43;2.20;;;;;;;2.63;100.00;96822.59;7404685;19;20377;-93
2023/09/25 05:02:34;;;;;;;3.50;2.30;;;;;;;2.47;100.00;96828.09;7409599;19;20983;-92
2023/09/25 05:05:16;;;;;;;4.03;2.83;;;;;;;1.14;100.00;96621.31;7404369;19;20360;-92
2023/09/25 05:07:45;;;;;;;8.70;3.40;;;;;;;0.28;100.00;96487.41;7402663;19;20421;-92
2023/09/25 05:10:14;;;;;;;9.20;6.00;;;;;;;0.21;100.00;96499.06;7400676;19;20969;-92
2023/09/25 05:12:44;;;;;;;7.17;5.30;;;;;;;-0.02;100.00;96488.06;7403797;19;20703;-92
2023/09/25 05:15:14;;;;;;;7.10;5.00;;;;;;;0.76;100.00;96609.50;7404327;19;20384;-92
2023/09/25 05:17:43;;;;;;;6.90;5.30;;;;;;;1.12;100.00;96621.56;7397876;19;20957;-92
2023/09/25 05:20:15;;;;;;;18.20;9.40;;;;;;;1.13;100.00;96677.03;7401459;19;20399;-92
2023/09/25 05:22:48;;;;;;;10.07;6.90;;;;;;;1.12;100.00;96658.03;7401376;19;20377;-92
2023/09/25 05:25:16;;;;;;;11.33;6.47;;;;;;;0.56;100.00;96582.41;7402241;19;20365;-92
2023/09/25 05:27:50;;;;;;;10.60;4.43;;;;;;;1.31;100.00;96676.53;7398188;19;20416;-93
2023/09/25 05:30:18;;;;;;;9.10;4.13;;;;;;;0.95;100.00;96626.22;7400940;19;20377;-92
2023/09/25 05:32:51;;;;;;;5.60;4.67;;;;;;;0.87;100.00;96645.72;7397163;19;20381;-92
2023/09/25 05:35:19;;;;;;;6.33;3.53;;;;;;;1.64;100.00;96726.63;7400312;19;20388;-93
2023/09/25 05:37:48;;;;;;;5.17;4.00;;;;;;;0.29;100.00;96514.97;7398597;19;20413;-93
2023/09/25 05:40:17;;;;;;;5.17;3.80;;;;;;;2.15;100.00;96797.84;7403273;19;20405;-92
2023/09/25 05:42:46;;;;;;;8.87;4.50;;;;;;;0.59;100.00;96514.25;7425650;19;20431;-92
2023/09/25 05:45:15;;;;;;;7.23;3.60;;;;;;;0.32;100.00;96474.66;7429532;19;20402;-94
2023/09/25 05:47:46;;;;;;;5.83;4.40;;;;;;;2.43;100.00;96816.63;7428557;19;20437;-94
2023/09/25 05:50:13;;;;;;;4.73;3.10;;;;;;;1.75;100.00;96699.53;7424138;19;20404;-93
2023/09/25 05:52:41;;;;;;;8.50;4.57;;;;;;;2.14;100.00;96748.53;7403451;19;20442;-94
2023/09/25 05:55:09;;;;;;;6.63;4.40;;;;;;;0.90;100.00;96563.75;7401188;19;20448;-92
2023/09/25 05:57:36;;;;;;;14.00;5.80;;;;;;;1.73;100.00;96673.72;7397822;19;20480;-92
2023/09/25 06:00:11;;;;;;;9.40;4.20;;;;;;;3.02;100.00;96850.75;7398199;19;20403;-91
2023/09/25 06:17:03;;;;;;;26.77;9.33;;;;;;;1.01;100.00;96495.03;7416039;19;20420;-91
2023/09/25 06:34:56;;;;;;;34.63;4.77;;;;;;;4.22;100.00;96864.63;7397433;19;20412;-92
2023/09/25 09:21:54;;;;;;;3.90;3.30;;;;;;;12.75;100.00;96697.47;7420741;19;20455;-95
2023/09/25 09:43:05;;;;;;;5.03;2.27;;;;;;;14.28;100.00;96866.06;7407551;19;20362;-95
2023/09/25 12:42:34;;;;;;;2.27;1.80;;;;;;;19.67;80.45;96765.72;6603093;19;15806716;-93
2023/09/25 12:46:12;;;;;;;2.90;1.90;;;;;;;19.46;80.67;96793.13;7415485;19;20136;-93
2023/09/25 12:48:57;;;;;;;2.47;2.27;;;;;;;18.56;81.42;96619.34;7417467;19;20400;-94
2023/09/25 12:51:45;;;;;;;3.93;2.80;;;;;;;18.86;80.80;96619.25;7411555;19;20401;-93
2023/09/25 12:54:26;;;;;;;5.87;2.37;;;;;;;20.74;79.72;96807.25;7417354;19;20380;-94
2023/09/25 12:57:42;;;;;;;2.60;1.93;;;;;;;19.17;79.39;96639.34;7419093;19;20368;-93
2023/09/25 13:00:24;;;;;;;2.47;1.80;;;;;;;19.83;81.63;96790.34;7420398;19;20400;-94
2023/09/25 13:03:24;;;;;;;1.70;1.60;;;;;;;19.52;80.17;96713.09;7417308;19;20380;-94
2023/09/25 13:06:16;;;;;;;2.13;1.97;;;;;;;20.35;81.31;96799.03;7419228;19;20402;-93
2023/09/25 13:09:15;;;;;;;1.80;1.70;;;;;;;20.25;81.96;96748.72;7420776;19;20418;-93
2023/09/25 13:12:42;;;;;;;2.87;2.27;;;;;;;20.52;79.72;96800.28;7423341;19;20377;-93
2023/09/25 13:15:42;;;;;;;1.93;1.83;;;;;;;21.36;77.57;96803.50;7419518;19;20429;-93
2023/09/25 13:18:42;;;;;;;2.30;1.50;;;;;;;20.22;77.36;96648.22;7419400;19;20372;-94
2023/09/25 13:21:32;;;;;;;2.10;1.90;;;;;;;21.69;75.43;96808.47;7417549;19;20520;-93
2023/09/25 13:25:09;;;;;;;2.90;1.90;;;;;;;21.97;73.88;96802.28;7427776;19;20393;-94
2023/09/25 13:29:03;;;;;;;2.43;1.50;;;;;;;21.83;73.71;96805.75;7420788;19;20401;-93
2023/09/25 22:36:25;;;;;;;4.70;4.17;;;;;;;7.30;100.00;96547.34;7412036;19;20405;-93
2023/09/25 22:39:08;;;;;;;8.80;4.47;;;;;;;8.17;100.00;96681.06;7411742;19;20380;-93
2023/09/25 22:41:49;;;;;;;5.33;4.80;;;;;;;8.28;100.00;96686.84;7413046;19;20427;-94
2023/09/25 22:44:30;;;;;;;4.43;4.03;;;;;;;6.64;100.00;96439.25;7410940;19;20380;-94
2023/09/25 22:47:11;;;;;;;7.43;4.50;;;;;;;8.03;100.00;96637.44;7414459;19;20380;-93
2023/09/25 22:49:51;;;;;;;5.53;5.03;;;;;;;8.46;100.00;96687.75;7417840;19;20416;-95
2023/09/25 22:52:32;;;;;;;5.20;4.70;;;;;;;6.72;100.00;96443.81;7414137;19;20372;-94
2023/09/25 22:55:16;;;;;;;5.57;4.97;;;;;;;8.52;100.00;96675.97;7414057;19;20388;-94
2023/09/25 22:57:59;;;;;;;19.73;6.63;;;;;;;7.56;100.00;96539.63;7417022;19;20411;-94
2023/09/25 23:00:40;;;;;;;5.57;5.07;;;;;;;8.52;100.00;96671.47;7415529;19;20400;-94
2023/09/25 23:03:21;;;;;;;7.60;5.03;;;;;;;8.53;100.00;96678.31;7415353;19;20397;-93
2023/09/25 23:06:06;;;;;;;5.50;4.60;;;;;;;7.38;100.00;96541.38;7417558;19;20412;-94
2023/09/25 23:08:46;;;;;;;4.90;4.40;;;;;;;6.79;100.00;96444.16;7412455;19;20392;-93
2023/09/25 23:11:27;;;;;;;6.53;4.50;;;;;;;7.47;100.00;96588.78;7412926;19;20432;-94
2023/09/25 23:13:56;;;;;;;4.80;4.40;;;;;;;6.81;100.00;96481.44;7413976;19;20373;-94
2023/09/25 23:16:37;;;;;;;5.63;4.83;;;;;;;7.07;100.00;96538.69;7411633;19;20392;-94
2023/09/25 23:19:21;;;;;;;6.47;4.50;;;;;;;7.92;100.00;96673.78;7424167;19;20403;-95
2023/09/25 23:22:02;;;;;;;5.30;4.80;;;;;;;7.08;100.00;96533.16;7431939;19;20417;-96
2023/09/25 23:24:43;;;;;;;5.37;4.87;;;;;;;8.02;100.00;96670.13;7436966;19;20401;-96
2023/09/25 23:27:24;;;;;;;5.10;4.30;;;;;;;6.86;100.00;96498.16;7422402;19;20416;-93
2023/09/25 23:30:06;;;;;;;5.80;4.10;;;;;;;7.12;100.00;96509.66;7419599;19;20710;-94
2023/09/25 23:32:49;;;;;;;9.00;4.27;;;;;;;6.52;100.00;96429.28;7418431;19;20380;-94
2023/09/25 23:35:33;;;;;;;4.57;4.27;;;;;;;7.08;100.00;96524.47;7422634;19;20399;-94
2023/09/25 23:38:13;;;;;;;5.00;3.93;;;;;;;7.85;100.00;96665.50;7418744;19;20384;-94
2023/09/25 23:40:54;;;;;;;5.13;4.30;;;;;;;7.08;100.00;96535.78;7418564;19;20416;-94
2023/09/25 23:43:35;;;;;;;5.80;4.37;;;;;;;7.87;100.00;96665.97;7417661;19;20372;-94
2023/09/25 23:46:17;;;;;;;8.37;4.70;;;;;;;6.44;100.00;96456.25;7421476;19;20406;-94
2023/09/25 23:48:57;;;;;;;12.77;4.90;;;;;;;6.43;100.00;96446.84;7418357;19;20393;-94
2023/09/25 23:51:38;;;;;;;3.83;3.40;;;;;;;6.97;100.00;96547.59;7417237;19;20420;-93
2023/09/25 23:54:19;;;;;;;5.20;4.53;;;;;;;7.87;100.00;96666.75;7414075;19;20376;-93
2023/09/25 23:57:00;;;;;;;7.83;3.93;;;;;;;6.84;100.00;96532.63;7411443;19;20381;-94
2023/09/25 23:59:52;;;;;;;8.90;3.83;;;;;;;7.82;100.00;96669.53;7416421;19;20384;-93
